sensor_id;sensor_type;location;lat;lon;timestamp;pressure;altitude;pressure_sealevel;temperature;humidity
47983;BME280;33751;50.816;-1.214;2024-02-15T00:01:04;101208.16;;;26.35;100.00
47983;BME280;33751;50.816;-1.214;2024-02-15T00:03:31;101200.58;;;26.39;100.00
47983;BME280;33751;50.816;-1.214;2024-02-15T00:05:57;101194.36;;;26.60;100.00
47983;BME280;33751;50.816;-1.214;2024-02-15T00:08:24;101195.91;;;26.33;100.00
47983;BME280;33751;50.816;-1.214;2024-02-15T00:10:50;101195.60;;;26.34;100.00
47983;BME280;33751;50.816;-1.214;2024-02-15T00:13:17;101196.92;;;26.36;100.00
47983;BME280;33751;50.816;-1.214;2024-02-15T00:15:43;101201.97;;;26.69;100.00
47983;BME280;33751;50.816;-1.214;2024-02-15T00:18:11;101209.51;;;26.67;100.00
47983;BME280;33751;50.816;-1.214;2024-02-15T00:20:37;101205.78;;;26.20;100.00
47983;BME280;33751;50.816;-1.214;2024-02-15T00:23:04;101210.31;;;26.27;100.00
47983;BME280;33751;50.816;-1.214;2024-02-15T00:25:31;101204.82;;;26.33;100.00
47983;BME280;33751;50.816;-1.214;2024-02-15T00:27:58;101201.79;;;26.45;100.00
47983;BME280;33751;50.816;-1.214;2024-02-15T00:30:26;101198.50;;;26.47;100.00
47983;BME280;33751;50.816;-1.214;2024-02-15T00:32:53;101192.40;;;26.62;100.00
47983;BME280;33751;50.816;-1.214;2024-02-15T00:35:20;101192.24;;;26.32;100.00
47983;BME280;33751;50.816;-1.214;2024-02-15T00:37:48;101186.84;;;26.56;100.00
47983;BME280;33751;50.816;-1.214;2024-02-15T00:40:15;101183.57;;;26.60;100.00
47983;BME280;33751;50.816;-1.214;2024-02-15T00:42:42;101186.83;;;26.08;100.00
47983;BME280;33751;50.816;-1.214;2024-02-15T00:45:09;101190.11;;;26.28;100.00
47983;BME280;33751;50.816;-1.214;2024-02-15T00:47:36;101189.87;;;26.52;100.00
47983;BME280;33751;50.816;-1.214;2024-02-15T00:50:04;101192.18;;;26.32;100.00
47983;BME280;33751;50.816;-1.214;2024-02-15T00:52:31;101188.06;;;26.07;100.00
47983;BME280;33751;50.816;-1.214;2024-02-15T00:54:58;101185.26;;;26.10;100.00
47983;BME280;33751;50.816;-1.214;2024-02-15T00:57:24;101180.59;;;26.57;100.00
47983;BME280;33751;50.816;-1.214;2024-02-15T00:59:51;101181.99;;;26.44;100.00
47983;BME280;33751;50.816;-1.214;2024-02-15T01:02:18;101176.88;;;26.50;100.00
47983;BME280;33751;50.816;-1.214;2024-02-15T01:04:45;101177.42;;;26.45;100.00
47983;BME280;33751;50.816;-1.214;2024-02-15T01:07:12;101175.41;;;26.46;100.00
47983;BME280;33751;50.816;-1.214;2024-02-15T01:09:39;101170.19;;;26.48;100.00
47983;BME280;33751;50.816;-1.214;2024-02-15T01:12:07;101171.31;;;26.47;100.00
47983;BME280;33751;50.816;-1.214;2024-02-15T01:14:34;101173.12;;;26.40;100.00
47983;BME280;33751;50.816;-1.214;2024-02-15T01:17:00;101164.80;;;26.41;100.00
47983;BME280;33751;50.816;-1.214;2024-02-15T01:19:27;101164.07;;;26.38;100.00
47983;BME280;33751;50.816;-1.214;2024-02-15T01:21:53;101156.80;;;25.94;100.00
47983;BME280;33751;50.816;-1.214;2024-02-15T01:24:20;101157.97;;;26.40;100.00
47983;BME280;33751;50.816;-1.214;2024-02-15T01:26:47;101146.35;;;26.14;100.00
47983;BME280;33751;50.816;-1.214;2024-02-15T01:29:13;101150.79;;;26.48;100.00
47983;BME280;33751;50.816;-1.214;2024-02-15T01:31:40;101148.61;;;26.48;100.00
47983;BME280;33751;50.816;-1.214;2024-02-15T01:34:06;101148.39;;;26.42;100.00
47983;BME280;33751;50.816;-1.214;2024-02-15T01:36:33;101147.08;;;26.27;100.00
47983;BME280;33751;50.816;-1.214;2024-02-15T01:38:59;101147.77;;;26.31;100.00
47983;BME280;33751;50.816;-1.214;2024-02-15T01:41:26;101148.42;;;26.37;100.00
47983;BME280;33751;50.816;-1.214;2024-02-15T01:43:53;101145.31;;;26.40;100.00
47983;BME280;33751;50.816;-1.214;2024-02-15T01:46:20;101147.33;;;26.52;100.00
47983;BME280;33751;50.816;-1.214;2024-02-15T01:48:48;101141.82;;;26.39;100.00
47983;BME280;33751;50.816;-1.214;2024-02-15T01:51:16;101144.57;;;26.33;100.00
47983;BME280;33751;50.816;-1.214;2024-02-15T01:53:43;101142.86;;;26.23;100.00
47983;BME280;33751;50.816;-1.214;2024-02-15T01:56:13;101141.77;;;26.28;100.00
47983;BME280;33751;50.816;-1.214;2024-02-15T01:58:41;101142.37;;;26.42;100.00
47983;BME280;33751;50.816;-1.214;2024-02-15T02:01:10;101146.48;;;26.33;100.00
47983;BME280;33751;50.816;-1.214;2024-02-15T02:03:39;101143.99;;;26.21;100.00
47983;BME280;33751;50.816;-1.214;2024-02-15T02:06:06;101137.45;;;26.20;100.00
47983;BME280;33751;50.816;-1.214;2024-02-15T02:08:33;101140.68;;;26.20;100.00
47983;BME280;33751;50.816;-1.214;2024-02-15T02:11:00;101145.06;;;25.90;100.00
47983;BME280;33751;50.816;-1.214;2024-02-15T02:13:27;101145.85;;;26.28;100.00
47983;BME280;33751;50.816;-1.214;2024-02-15T02:15:53;101139.35;;;26.42;100.00
47983;BME280;33751;50.816;-1.214;2024-02-15T02:18:20;101142.73;;;26.06;100.00
47983;BME280;33751;50.816;-1.214;2024-02-15T02:20:47;101134.99;;;26.09;100.00
47983;BME280;33751;50.816;-1.214;2024-02-15T02:23:15;101138.32;;;26.08;100.00
47983;BME280;33751;50.816;-1.214;2024-02-15T02:25:43;101136.17;;;26.44;100.00
47983;BME280;33751;50.816;-1.214;2024-02-15T02:28:10;101132.05;;;26.18;100.00
47983;BME280;33751;50.816;-1.214;2024-02-15T02:30:37;101127.52;;;26.20;100.00
47983;BME280;33751;50.816;-1.214;2024-02-15T02:33:04;101126.01;;;26.28;100.00
47983;BME280;33751;50.816;-1.214;2024-02-15T02:35:32;101122.25;;;26.26;100.00
47983;BME280;33751;50.816;-1.214;2024-02-15T02:37:59;101119.21;;;26.11;100.00
47983;BME280;33751;50.816;-1.214;2024-02-15T02:40:26;101118.70;;;25.83;100.00
47983;BME280;33751;50.816;-1.214;2024-02-15T02:42:54;101107.63;;;26.11;100.00
47983;BME280;33751;50.816;-1.214;2024-02-15T02:45:22;101107.42;;;26.10;100.00
47983;BME280;33751;50.816;-1.214;2024-02-15T02:47:49;101110.79;;;26.04;100.00
47983;BME280;33751;50.816;-1.214;2024-02-15T02:50:15;101101.43;;;26.06;100.00
47983;BME280;33751;50.816;-1.214;2024-02-15T02:52:43;101103.89;;;26.09;100.00
47983;BME280;33751;50.816;-1.214;2024-02-15T02:55:10;101099.73;;;26.14;100.00
47983;BME280;33751;50.816;-1.214;2024-02-15T02:57:38;101096.82;;;26.15;100.00
47983;BME280;33751;50.816;-1.214;2024-02-15T03:00:07;101096.65;;;26.19;100.00
47983;BME280;33751;50.816;-1.214;2024-02-15T03:02:34;101092.83;;;26.20;100.00
47983;BME280;33751;50.816;-1.214;2024-02-15T03:05:02;101088.58;;;26.27;100.00
47983;BME280;33751;50.816;-1.214;2024-02-15T03:07:32;101093.06;;;26.19;100.00
47983;BME280;33751;50.816;-1.214;2024-02-15T03:10:00;101090.94;;;26.22;100.00
47983;BME280;33751;50.816;-1.214;2024-02-15T03:12:26;101088.19;;;26.31;100.00
47983;BME280;33751;50.816;-1.214;2024-02-15T03:14:53;101085.37;;;26.32;100.00
47983;BME280;33751;50.816;-1.214;2024-02-15T03:17:19;101082.70;;;25.81;100.00
47983;BME280;33751;50.816;-1.214;2024-02-15T03:19:46;101083.19;;;26.08;100.00
47983;BME280;33751;50.816;-1.214;2024-02-15T03:22:13;101085.02;;;26.05;100.00
47983;BME280;33751;50.816;-1.214;2024-02-15T03:24:40;101079.46;;;26.07;100.00
47983;BME280;33751;50.816;-1.214;2024-02-15T03:27:08;101080.47;;;25.92;100.00
47983;BME280;33751;50.816;-1.214;2024-02-15T03:29:35;101079.99;;;26.08;100.00
47983;BME280;33751;50.816;-1.214;2024-02-15T03:32:02;101083.81;;;26.07;100.00
47983;BME280;33751;50.816;-1.214;2024-02-15T03:34:29;101083.26;;;25.79;100.00
47983;BME280;33751;50.816;-1.214;2024-02-15T03:36:56;101082.69;;;26.05;100.00
47983;BME280;33751;50.816;-1.214;2024-02-15T03:39:22;101080.10;;;25.79;100.00
47983;BME280;33751;50.816;-1.214;2024-02-15T03:41:48;101079.57;;;25.96;100.00
47983;BME280;33751;50.816;-1.214;2024-02-15T03:44:15;101078.99;;;25.90;100.00
47983;BME280;33751;50.816;-1.214;2024-02-15T03:46:42;101081.28;;;26.26;100.00
47983;BME280;33751;50.816;-1.214;2024-02-15T03:49:10;101080.36;;;26.33;100.00
47983;BME280;33751;50.816;-1.214;2024-02-15T03:51:36;101080.27;;;26.08;100.00
47983;BME280;33751;50.816;-1.214;2024-02-15T03:54:04;101080.77;;;25.89;100.00
47983;BME280;33751;50.816;-1.214;2024-02-15T03:56:30;101080.89;;;26.58;100.00
47983;BME280;33751;50.816;-1.214;2024-02-15T03:58:56;101076.07;;;26.06;100.00
47983;BME280;33751;50.816;-1.214;2024-02-15T04:01:23;101075.27;;;26.32;100.00
47983;BME280;33751;50.816;-1.214;2024-02-15T04:03:49;101070.78;;;26.47;100.00
47983;BME280;33751;50.816;-1.214;2024-02-15T04:06:16;101071.13;;;25.93;100.00
47983;BME280;33751;50.816;-1.214;2024-02-15T04:08:42;101072.60;;;25.92;100.00
47983;BME280;33751;50.816;-1.214;2024-02-15T04:11:09;101068.85;;;25.93;100.00
47983;BME280;33751;50.816;-1.214;2024-02-15T04:13:35;101068.78;;;26.44;100.00
47983;BME280;33751;50.816;-1.214;2024-02-15T04:16:02;101072.82;;;25.98;100.00
47983;BME280;33751;50.816;-1.214;2024-02-15T04:18:29;101071.49;;;26.34;100.00
47983;BME280;33751;50.816;-1.214;2024-02-15T04:20:56;101075.23;;;25.89;100.00
47983;BME280;33751;50.816;-1.214;2024-02-15T04:23:23;101070.73;;;25.92;100.00
47983;BME280;33751;50.816;-1.214;2024-02-15T04:25:50;101071.90;;;25.96;100.00
47983;BME280;33751;50.816;-1.214;2024-02-15T04:28:17;101073.26;;;25.78;100.00
47983;BME280;33751;50.816;-1.214;2024-02-15T04:30:43;101068.40;;;25.90;100.00
47983;BME280;33751;50.816;-1.214;2024-02-15T04:33:10;101071.47;;;25.95;100.00
47983;BME280;33751;50.816;-1.214;2024-02-15T04:35:37;101072.74;;;25.88;100.00
47983;BME280;33751;50.816;-1.214;2024-02-15T04:38:03;101067.73;;;26.19;100.00
47983;BME280;33751;50.816;-1.214;2024-02-15T04:40:30;101071.63;;;26.29;100.00
47983;BME280;33751;50.816;-1.214;2024-02-15T04:42:56;101069.75;;;26.08;100.00
47983;BME280;33751;50.816;-1.214;2024-02-15T04:45:23;101072.60;;;25.83;100.00
47983;BME280;33751;50.816;-1.214;2024-02-15T04:47:50;101077.38;;;26.18;100.00
47983;BME280;33751;50.816;-1.214;2024-02-15T04:50:17;101074.20;;;25.95;100.00
47983;BME280;33751;50.816;-1.214;2024-02-15T04:52:44;101073.27;;;26.47;100.00
47983;BME280;33751;50.816;-1.214;2024-02-15T04:55:10;101073.61;;;25.92;100.00
47983;BME280;33751;50.816;-1.214;2024-02-15T04:57:37;101077.28;;;25.66;100.00
47983;BME280;33751;50.816;-1.214;2024-02-15T05:00:05;101077.34;;;26.01;100.00
47983;BME280;33751;50.816;-1.214;2024-02-15T05:02:32;101069.76;;;25.66;100.00
47983;BME280;33751;50.816;-1.214;2024-02-15T05:04:59;101063.74;;;25.92;100.00
47983;BME280;33751;50.816;-1.214;2024-02-15T05:07:25;101062.26;;;25.74;100.00
47983;BME280;33751;50.816;-1.214;2024-02-15T05:09:52;101062.82;;;26.06;100.00
47983;BME280;33751;50.816;-1.214;2024-02-15T05:12:22;101057.87;;;26.09;100.00
47983;BME280;33751;50.816;-1.214;2024-02-15T05:14:50;101054.80;;;25.86;100.00
47983;BME280;33751;50.816;-1.214;2024-02-15T05:17:17;101054.66;;;25.78;100.00
47983;BME280;33751;50.816;-1.214;2024-02-15T05:19:44;101057.96;;;25.77;100.00
47983;BME280;33751;50.816;-1.214;2024-02-15T05:22:12;101051.77;;;25.58;100.00
47983;BME280;33751;50.816;-1.214;2024-02-15T05:24:39;101050.29;;;25.54;100.00
47983;BME280;33751;50.816;-1.214;2024-02-15T05:27:06;101047.76;;;25.55;100.00
47983;BME280;33751;50.816;-1.214;2024-02-15T05:29:34;101045.13;;;25.57;100.00
47983;BME280;33751;50.816;-1.214;2024-02-15T05:32:00;101045.71;;;25.56;100.00
47983;BME280;33751;50.816;-1.214;2024-02-15T05:34:27;101044.62;;;25.60;100.00
47983;BME280;33751;50.816;-1.214;2024-02-15T05:36:53;101043.94;;;26.06;100.00
47983;BME280;33751;50.816;-1.214;2024-02-15T05:39:20;101044.52;;;25.62;100.00
47983;BME280;33751;50.816;-1.214;2024-02-15T05:41:47;101051.35;;;26.02;100.00
47983;BME280;33751;50.816;-1.214;2024-02-15T05:44:13;101041.45;;;25.61;100.00
47983;BME280;33751;50.816;-1.214;2024-02-15T05:46:40;101046.14;;;25.73;100.00
47983;BME280;33751;50.816;-1.214;2024-02-15T05:49:07;101044.85;;;25.99;100.00
47983;BME280;33751;50.816;-1.214;2024-02-15T05:51:34;101040.08;;;25.64;100.00
47983;BME280;33751;50.816;-1.214;2024-02-15T05:54:01;101042.06;;;25.93;100.00
47983;BME280;33751;50.816;-1.214;2024-02-15T05:56:27;101038.07;;;26.00;100.00
47983;BME280;33751;50.816;-1.214;2024-02-15T05:58:54;101044.89;;;25.42;100.00
47983;BME280;33751;50.816;-1.214;2024-02-15T06:01:20;101034.46;;;25.28;100.00
47983;BME280;33751;50.816;-1.214;2024-02-15T06:03:47;101030.33;;;26.14;100.00
47983;BME280;33751;50.816;-1.214;2024-02-15T06:06:14;101024.73;;;25.55;100.00
47983;BME280;33751;50.816;-1.214;2024-02-15T06:08:40;101015.95;;;25.54;100.00
47983;BME280;33751;50.816;-1.214;2024-02-15T06:11:07;101017.47;;;25.74;100.00
47983;BME280;33751;50.816;-1.214;2024-02-15T06:13:33;101016.58;;;25.63;100.00
47983;BME280;33751;50.816;-1.214;2024-02-15T06:16:01;101008.38;;;25.49;100.00
47983;BME280;33751;50.816;-1.214;2024-02-15T06:18:29;101006.34;;;25.50;100.00
47983;BME280;33751;50.816;-1.214;2024-02-15T06:20:56;101004.18;;;25.95;100.00
47983;BME280;33751;50.816;-1.214;2024-02-15T06:23:23;101004.34;;;25.90;100.00
47983;BME280;33751;50.816;-1.214;2024-02-15T06:25:51;100998.90;;;25.29;100.00
47983;BME280;33751;50.816;-1.214;2024-02-15T06:28:18;101000.82;;;25.37;100.00
47983;BME280;33751;50.816;-1.214;2024-02-15T06:30:46;100997.03;;;25.87;100.00
47983;BME280;33751;50.816;-1.214;2024-02-15T06:33:13;100990.81;;;25.91;100.00
47983;BME280;33751;50.816;-1.214;2024-02-15T06:35:40;100996.92;;;25.59;100.00
47983;BME280;33751;50.816;-1.214;2024-02-15T06:38:08;100999.92;;;26.05;100.00
47983;BME280;33751;50.816;-1.214;2024-02-15T06:40:34;100995.48;;;25.57;100.00
47983;BME280;33751;50.816;-1.214;2024-02-15T06:43:02;100997.07;;;25.49;100.00
47983;BME280;33751;50.816;-1.214;2024-02-15T06:45:29;100998.42;;;25.76;100.00
47983;BME280;33751;50.816;-1.214;2024-02-15T06:47:55;100999.83;;;26.22;100.00
47983;BME280;33751;50.816;-1.214;2024-02-15T06:50:22;100995.95;;;26.07;100.00
47983;BME280;33751;50.816;-1.214;2024-02-15T06:52:48;100991.10;;;26.16;100.00
47983;BME280;33751;50.816;-1.214;2024-02-15T06:55:15;100985.82;;;26.02;100.00
47983;BME280;33751;50.816;-1.214;2024-02-15T06:57:42;100983.71;;;25.69;100.00
47983;BME280;33751;50.816;-1.214;2024-02-15T07:00:10;100985.71;;;26.45;100.00
47983;BME280;33751;50.816;-1.214;2024-02-15T07:02:37;100987.87;;;26.34;100.00
47983;BME280;33751;50.816;-1.214;2024-02-15T07:05:04;100985.01;;;26.69;100.00
47983;BME280;33751;50.816;-1.214;2024-02-15T07:07:31;100981.78;;;26.74;100.00
47983;BME280;33751;50.816;-1.214;2024-02-15T07:09:57;100985.06;;;26.56;100.00
47983;BME280;33751;50.816;-1.214;2024-02-15T07:12:24;100982.08;;;26.45;100.00
47983;BME280;33751;50.816;-1.214;2024-02-15T07:14:50;100979.18;;;26.97;100.00
47983;BME280;33751;50.816;-1.214;2024-02-15T07:17:17;100983.20;;;26.55;100.00
47983;BME280;33751;50.816;-1.214;2024-02-15T07:19:44;100982.81;;;26.60;100.00
47983;BME280;33751;50.816;-1.214;2024-02-15T07:22:10;100984.87;;;26.73;100.00
47983;BME280;33751;50.816;-1.214;2024-02-15T07:24:37;100978.37;;;27.11;100.00
47983;BME280;33751;50.816;-1.214;2024-02-15T07:27:04;100976.15;;;27.13;100.00
47983;BME280;33751;50.816;-1.214;2024-02-15T07:29:32;100973.55;;;27.23;100.00
47983;BME280;33751;50.816;-1.214;2024-02-15T07:32:01;100978.23;;;27.02;100.00
47983;BME280;33751;50.816;-1.214;2024-02-15T07:34:28;100977.18;;;26.95;100.00
47983;BME280;33751;50.816;-1.214;2024-02-15T07:36:54;100973.99;;;27.52;100.00
47983;BME280;33751;50.816;-1.214;2024-02-15T07:39:21;100968.85;;;27.05;100.00
47983;BME280;33751;50.816;-1.214;2024-02-15T07:41:47;100968.40;;;27.15;100.00
47983;BME280;33751;50.816;-1.214;2024-02-15T07:44:14;100970.92;;;27.27;100.00
47983;BME280;33751;50.816;-1.214;2024-02-15T07:46:41;100966.66;;;27.36;100.00
47983;BME280;33751;50.816;-1.214;2024-02-15T07:49:08;100970.30;;;27.37;100.00
47983;BME280;33751;50.816;-1.214;2024-02-15T07:51:35;100973.48;;;27.25;100.00
47983;BME280;33751;50.816;-1.214;2024-02-15T07:54:02;100968.95;;;27.18;100.00
47983;BME280;33751;50.816;-1.214;2024-02-15T07:56:29;100964.96;;;27.24;100.00
47983;BME280;33751;50.816;-1.214;2024-02-15T07:58:55;100966.76;;;27.30;100.00
47983;BME280;33751;50.816;-1.214;2024-02-15T08:01:23;100965.87;;;27.24;100.00
47983;BME280;33751;50.816;-1.214;2024-02-15T08:03:49;100962.96;;;27.22;100.00
47983;BME280;33751;50.816;-1.214;2024-02-15T08:06:17;100960.99;;;26.91;100.00
47983;BME280;33751;50.816;-1.214;2024-02-15T08:08:47;100957.58;;;27.37;100.00
47983;BME280;33751;50.816;-1.214;2024-02-15T08:11:14;100954.59;;;27.34;100.00
47983;BME280;33751;50.816;-1.214;2024-02-15T08:13:43;100953.82;;;27.01;100.00
47983;BME280;33751;50.816;-1.214;2024-02-15T08:16:10;100951.04;;;27.09;100.00
47983;BME280;33751;50.816;-1.214;2024-02-15T08:18:37;100951.17;;;27.10;100.00
47983;BME280;33751;50.816;-1.214;2024-02-15T08:21:03;100949.25;;;26.98;100.00
47983;BME280;33751;50.816;-1.214;2024-02-15T08:23:30;100948.46;;;27.08;100.00
47983;BME280;33751;50.816;-1.214;2024-02-15T08:25:57;100942.49;;;26.98;100.00
47983;BME280;33751;50.816;-1.214;2024-02-15T08:28:24;100941.72;;;26.83;100.00
47983;BME280;33751;50.816;-1.214;2024-02-15T08:30:52;100936.55;;;26.94;100.00
47983;BME280;33751;50.816;-1.214;2024-02-15T08:33:19;100932.60;;;26.63;100.00
47983;BME280;33751;50.816;-1.214;2024-02-15T08:35:45;100935.00;;;26.55;100.00
47983;BME280;33751;50.816;-1.214;2024-02-15T08:38:12;100932.13;;;26.79;100.00
47983;BME280;33751;50.816;-1.214;2024-02-15T08:40:38;100920.94;;;26.78;100.00
47983;BME280;33751;50.816;-1.214;2024-02-15T08:43:05;100915.81;;;26.84;100.00
47983;BME280;33751;50.816;-1.214;2024-02-15T08:45:31;100906.95;;;27.03;100.00
47983;BME280;33751;50.816;-1.214;2024-02-15T08:47:58;100902.10;;;27.10;100.00
47983;BME280;33751;50.816;-1.214;2024-02-15T08:50:24;100903.06;;;27.30;100.00
47983;BME280;33751;50.816;-1.214;2024-02-15T08:52:51;100897.38;;;26.81;100.00
47983;BME280;33751;50.816;-1.214;2024-02-15T08:55:17;100897.92;;;27.00;100.00
47983;BME280;33751;50.816;-1.214;2024-02-15T08:57:44;100894.52;;;26.99;100.00
47983;BME280;33751;50.816;-1.214;2024-02-15T09:00:11;100896.42;;;26.95;100.00
47983;BME280;33751;50.816;-1.214;2024-02-15T09:02:38;100893.41;;;27.12;100.00
47983;BME280;33751;50.816;-1.214;2024-02-15T09:05:05;100890.62;;;26.95;100.00
47983;BME280;33751;50.816;-1.214;2024-02-15T09:07:32;100884.45;;;27.51;100.00
47983;BME280;33751;50.816;-1.214;2024-02-15T09:09:59;100878.93;;;27.25;100.00
47983;BME280;33751;50.816;-1.214;2024-02-15T09:12:26;100871.67;;;27.24;100.00
47983;BME280;33751;50.816;-1.214;2024-02-15T09:14:53;100864.95;;;27.17;100.00
47983;BME280;33751;50.816;-1.214;2024-02-15T09:17:20;100860.78;;;27.15;100.00
47983;BME280;33751;50.816;-1.214;2024-02-15T09:19:47;100862.29;;;27.04;100.00
47983;BME280;33751;50.816;-1.214;2024-02-15T09:22:14;100860.83;;;26.99;100.00
47983;BME280;33751;50.816;-1.214;2024-02-15T09:24:40;100862.72;;;26.84;100.00
47983;BME280;33751;50.816;-1.214;2024-02-15T09:27:08;100861.79;;;27.30;100.00
47983;BME280;33751;50.816;-1.214;2024-02-15T09:29:35;100858.81;;;27.09;100.00
47983;BME280;33751;50.816;-1.214;2024-02-15T09:32:01;100855.31;;;27.22;100.00
47983;BME280;33751;50.816;-1.214;2024-02-15T09:34:29;100859.59;;;27.17;100.00
47983;BME280;33751;50.816;-1.214;2024-02-15T09:36:56;100860.83;;;27.20;100.00
47983;BME280;33751;50.816;-1.214;2024-02-15T09:39:22;100857.95;;;27.23;100.00
47983;BME280;33751;50.816;-1.214;2024-02-15T09:41:49;100856.78;;;27.10;100.00
47983;BME280;33751;50.816;-1.214;2024-02-15T09:44:16;100858.72;;;27.06;100.00
47983;BME280;33751;50.816;-1.214;2024-02-15T09:46:43;100858.95;;;27.08;100.00
47983;BME280;33751;50.816;-1.214;2024-02-15T09:49:11;100851.03;;;27.27;100.00
47983;BME280;33751;50.816;-1.214;2024-02-15T09:51:39;100846.85;;;27.29;100.00
47983;BME280;33751;50.816;-1.214;2024-02-15T09:54:07;100845.83;;;27.45;100.00
47983;BME280;33751;50.816;-1.214;2024-02-15T09:56:34;100842.05;;;27.38;100.00
47983;BME280;33751;50.816;-1.214;2024-02-15T09:59:01;100839.63;;;27.15;100.00
47983;BME280;33751;50.816;-1.214;2024-02-15T10:01:31;100833.28;;;27.58;100.00
47983;BME280;33751;50.816;-1.214;2024-02-15T10:03:59;100831.27;;;27.82;100.00
47983;BME280;33751;50.816;-1.214;2024-02-15T10:06:29;100831.70;;;27.94;100.00
47983;BME280;33751;50.816;-1.214;2024-02-15T10:09:23;100832.35;;;27.74;100.00
47983;BME280;33751;50.816;-1.214;2024-02-15T10:11:54;100827.54;;;28.01;100.00
47983;BME280;33751;50.816;-1.214;2024-02-15T10:14:21;100827.80;;;27.75;100.00
47983;BME280;33751;50.816;-1.214;2024-02-15T10:16:47;100831.19;;;27.80;100.00
47983;BME280;33751;50.816;-1.214;2024-02-15T10:19:15;100831.29;;;27.60;100.00
47983;BME280;33751;50.816;-1.214;2024-02-15T10:21:42;100832.38;;;27.78;100.00
47983;BME280;33751;50.816;-1.214;2024-02-15T10:24:09;100837.26;;;28.01;100.00
47983;BME280;33751;50.816;-1.214;2024-02-15T10:26:36;100830.44;;;28.01;100.00
47983;BME280;33751;50.816;-1.214;2024-02-15T10:29:08;100829.92;;;27.99;100.00
47983;BME280;33751;50.816;-1.214;2024-02-15T10:31:35;100824.48;;;27.75;100.00
47983;BME280;33751;50.816;-1.214;2024-02-15T10:34:04;100824.02;;;27.78;100.00
47983;BME280;33751;50.816;-1.214;2024-02-15T10:36:31;100822.94;;;27.78;100.00
47983;BME280;33751;50.816;-1.214;2024-02-15T10:39:11;100826.58;;;27.90;100.00
47983;BME280;33751;50.816;-1.214;2024-02-15T10:41:38;100834.82;;;27.68;100.00
47983;BME280;33751;50.816;-1.214;2024-02-15T10:44:06;100830.46;;;27.54;100.00
47983;BME280;33751;50.816;-1.214;2024-02-15T10:46:33;100829.39;;;27.54;100.00
47983;BME280;33751;50.816;-1.214;2024-02-15T10:49:00;100831.33;;;27.85;100.00
47983;BME280;33751;50.816;-1.214;2024-02-15T10:51:27;100828.36;;;27.75;100.00
47983;BME280;33751;50.816;-1.214;2024-02-15T10:53:58;100831.69;;;27.98;100.00
47983;BME280;33751;50.816;-1.214;2024-02-15T10:56:35;100822.20;;;28.17;100.00
47983;BME280;33751;50.816;-1.214;2024-02-15T10:59:10;100822.13;;;28.43;100.00
47983;BME280;33751;50.816;-1.214;2024-02-15T11:01:42;100832.04;;;27.93;100.00
47983;BME280;33751;50.816;-1.214;2024-02-15T11:04:14;100826.30;;;27.89;100.00
47983;BME280;33751;50.816;-1.214;2024-02-15T11:06:43;100829.22;;;28.04;100.00
47983;BME280;33751;50.816;-1.214;2024-02-15T11:09:11;100819.29;;;27.62;100.00
47983;BME280;33751;50.816;-1.214;2024-02-15T11:11:39;100818.76;;;27.92;100.00
47983;BME280;33751;50.816;-1.214;2024-02-15T11:14:26;100807.49;;;27.88;100.00
47983;BME280;33751;50.816;-1.214;2024-02-15T11:16:53;100796.61;;;28.20;100.00
47983;BME280;33751;50.816;-1.214;2024-02-15T11:19:41;100791.21;;;28.01;100.00
47983;BME280;33751;50.816;-1.214;2024-02-15T11:22:09;100785.68;;;27.97;100.00
47983;BME280;33751;50.816;-1.214;2024-02-15T11:24:37;100781.96;;;27.98;100.00
47983;BME280;33751;50.816;-1.214;2024-02-15T11:27:05;100776.20;;;27.91;100.00
47983;BME280;33751;50.816;-1.214;2024-02-15T11:29:48;100776.30;;;27.40;100.00
47983;BME280;33751;50.816;-1.214;2024-02-15T11:32:43;100771.96;;;27.42;100.00
47983;BME280;33751;50.816;-1.214;2024-02-15T11:35:11;100767.31;;;27.69;100.00
47983;BME280;33751;50.816;-1.214;2024-02-15T11:38:27;100761.18;;;28.56;100.00
47983;BME280;33751;50.816;-1.214;2024-02-15T11:41:10;100754.35;;;27.95;100.00
47983;BME280;33751;50.816;-1.214;2024-02-15T11:43:50;100751.57;;;27.74;100.00
47983;BME280;33751;50.816;-1.214;2024-02-15T11:46:18;100750.49;;;27.78;100.00
47983;BME280;33751;50.816;-1.214;2024-02-15T11:48:45;100751.74;;;27.69;100.00
47983;BME280;33751;50.816;-1.214;2024-02-15T11:51:31;100749.56;;;27.83;100.00
47983;BME280;33751;50.816;-1.214;2024-02-15T11:54:05;100737.63;;;27.66;100.00
47983;BME280;33751;50.816;-1.214;2024-02-15T11:56:50;100734.12;;;27.83;100.00
47983;BME280;33751;50.816;-1.214;2024-02-15T11:59:17;100727.45;;;27.50;100.00
47983;BME280;33751;50.816;-1.214;2024-02-15T12:01:44;100725.88;;;27.77;100.00
47983;BME280;33751;50.816;-1.214;2024-02-15T12:04:12;100723.07;;;27.38;100.00
47983;BME280;33751;50.816;-1.214;2024-02-15T12:06:40;100728.39;;;27.53;100.00
47983;BME280;33751;50.816;-1.214;2024-02-15T12:09:09;100728.71;;;27.60;100.00
47983;BME280;33751;50.816;-1.214;2024-02-15T12:11:37;100726.91;;;27.69;100.00
47983;BME280;33751;50.816;-1.214;2024-02-15T12:14:04;100731.24;;;27.89;100.00
47983;BME280;33751;50.816;-1.214;2024-02-15T12:16:30;100736.13;;;26.98;100.00
47983;BME280;33751;50.816;-1.214;2024-02-15T12:18:58;100734.24;;;27.49;100.00
47983;BME280;33751;50.816;-1.214;2024-02-15T12:21:26;100732.22;;;27.74;100.00
47983;BME280;33751;50.816;-1.214;2024-02-15T12:23:54;100729.64;;;27.81;100.00
47983;BME280;33751;50.816;-1.214;2024-02-15T12:26:22;100722.02;;;27.79;100.00
47983;BME280;33751;50.816;-1.214;2024-02-15T12:28:51;100710.96;;;27.74;100.00
47983;BME280;33751;50.816;-1.214;2024-02-15T12:31:18;100709.61;;;27.89;100.00
47983;BME280;33751;50.816;-1.214;2024-02-15T12:33:44;100703.54;;;27.66;100.00